FNL weather

Northern Colorado Regional Airport
Fort Collins/Loveland, Colorado, United States

Public forecast

Using degrees Fahrenheit for public forecast. Weather courtesy of forecast.io.

Current aviation weather report (METAR) for Northern Colorado Regional Airport

Retrieved 2020/08/07 00:05 UTC (18 minutes ago):

KFNL 070005Z 15011KT 5SM HZ CLR 29/09 A2995 RMK AO2 WSHFT 2345 PNO

Closest aviation forecast (TAF) to Northern Colorado Regional Airport

Closest forecast is Rocky Mountain Metropolitan Airport, 33.0 nm (61.0 km) S. Retrieved 2020-08-07 00:36 UTC (0 seconds ago):

TAF KBJC 062334Z 0700/0724 15009KT P6SM VCSH FEW100 SCT140 BKN220 FM070300 25008KT P6SM SKC FM071700 VRB06KT P6SM FEW120 FM072100 30012KT P6SM SCT120